Elsinore, Utah
Current Conditions -  °F | °C
As of 3:52 AM on Thursday 18 Dec 2014 (Local Time) from KMLF Reporting Station
Overcast Overcast  
Wind Chill: 27°   Ceiling: 8000
Heat Index: 34°   Visibility: 10mi
Dew Point: 31°   Wind: 9mph
Humidity: 89%   Direction: 210°SSW
Pressure: 30.06"   Gusts: NA
Location:  38.68°N, 112.15°W
Report Text: KMLF 181052Z AUTO 21008KT 10SM FEW055 OVC080 01/M01 A3006 RMK AO2 SLP177 T00111006 TSNO
Loading
Personal Weather Stations






























Interactive Weather Map New forecast layout! Learn more

10-Day Weather Forecast

Advertisements
Track Severe Weather on mobile